createdAt,value
2017-06-11T00:01:56.369Z,4.60
2017-06-11T00:04:24.335Z,4.90
2017-06-11T00:06:51.966Z,5.33
2017-06-11T00:09:19.655Z,5.10
2017-06-11T00:11:49.394Z,5.47
2017-06-11T00:14:17.003Z,5.37
2017-06-11T00:16:44.572Z,5.80
2017-06-11T00:19:12.097Z,7.43
2017-06-11T00:21:39.938Z,5.23
2017-06-11T00:24:07.506Z,5.13
2017-06-11T00:26:35.053Z,7.70
2017-06-11T00:29:02.587Z,4.80
2017-06-11T00:31:30.181Z,5.60
2017-06-11T00:33:57.718Z,7.47
2017-06-11T00:36:25.257Z,5.90
2017-06-11T00:38:52.837Z,5.63
2017-06-11T00:41:20.376Z,6.17
2017-06-11T00:43:47.915Z,4.53
2017-06-11T00:46:15.509Z,4.80
2017-06-11T00:48:43.049Z,5.07
2017-06-11T00:51:10.586Z,4.37
2017-06-11T00:53:38.162Z,4.93
2017-06-11T00:56:05.698Z,4.67
2017-06-11T00:58:33.590Z,5.53
2017-06-11T01:01:01.182Z,5.50
2017-06-11T01:03:28.718Z,5.93
2017-06-11T01:05:56.249Z,6.50
2017-06-11T01:08:23.821Z,5.17
2017-06-11T01:10:51.365Z,5.50
2017-06-11T01:13:18.914Z,5.17
2017-06-11T01:15:46.482Z,5.33
2017-06-11T01:18:14.012Z,5.80
2017-06-11T01:20:41.542Z,5.03
2017-06-11T01:23:09.138Z,5.63
2017-06-11T01:25:36.694Z,6.47
2017-06-11T01:28:04.271Z,4.27
2017-06-11T01:30:31.963Z,4.77
2017-06-11T01:32:59.496Z,4.53
2017-06-11T01:35:27.047Z,5.27
2017-06-11T01:37:54.628Z,5.40
2017-06-11T01:40:22.158Z,5.50
2017-06-11T01:42:49.712Z,5.10
2017-06-11T01:45:17.302Z,5.63
2017-06-11T01:47:44.838Z,5.90
2017-06-11T01:50:12.379Z,5.60
2017-06-11T01:52:39.970Z,7.40
2017-06-11T01:55:07.505Z,5.77
2017-06-11T01:57:35.033Z,5.90
2017-06-11T02:00:02.597Z,5.50
2017-06-11T02:02:30.519Z,6.60
2017-06-11T02:04:58.318Z,6.07
2017-06-11T02:07:25.852Z,5.80
2017-06-11T02:09:53.423Z,6.10
2017-06-11T02:12:20.958Z,6.07
2017-06-11T02:14:48.498Z,6.97
2017-06-11T02:17:16.066Z,7.60
2017-06-11T02:19:43.598Z,13.63
2017-06-11T02:22:11.132Z,6.87
2017-06-11T02:24:38.711Z,12.83
2017-06-11T02:27:06.254Z,8.37
2017-06-11T02:29:34.378Z,8.37
2017-06-11T02:32:02.078Z,9.37
2017-06-11T02:34:29.623Z,9.07
2017-06-11T02:36:57.157Z,11.57
2017-06-11T02:39:24.723Z,9.33
2017-06-11T02:41:52.261Z,9.77
2017-06-11T02:44:19.800Z,5.40
2017-06-11T02:46:47.396Z,5.73
2017-06-11T02:49:14.938Z,5.27
2017-06-11T02:51:42.486Z,6.10
2017-06-11T02:54:10.053Z,5.73
2017-06-11T02:56:37.589Z,6.70
2017-06-11T02:59:05.129Z,6.13
2017-06-11T03:01:32.711Z,4.80
2017-06-11T03:04:00.244Z,4.57
2017-06-11T03:06:27.777Z,5.00
2017-06-11T03:08:55.352Z,3.93
2017-06-11T03:11:22.927Z,3.50
2017-06-11T03:13:50.466Z,3.90
2017-06-11T03:16:18.030Z,4.13
2017-06-11T03:18:45.580Z,5.97
2017-06-11T03:21:13.109Z,4.83
2017-06-11T03:23:40.678Z,4.63
2017-06-11T03:26:08.206Z,4.30
2017-06-11T03:28:35.743Z,4.40
2017-06-11T03:31:03.329Z,4.30
2017-06-11T03:33:30.893Z,4.70
2017-06-11T03:35:58.428Z,4.10
2017-06-11T03:38:25.997Z,4.37
2017-06-11T03:40:53.551Z,4.20
2017-06-11T03:43:21.157Z,4.60
2017-06-11T03:45:48.718Z,4.70
2017-06-11T03:48:16.259Z,3.97
2017-06-11T03:50:43.788Z,4.67
2017-06-11T03:53:11.362Z,4.80
2017-06-11T03:55:38.901Z,5.30
2017-06-11T03:58:06.434Z,6.00
2017-06-11T04:00:34.010Z,7.97
2017-06-11T04:03:01.539Z,6.53
2017-06-11T04:05:29.074Z,8.03
2017-06-11T04:07:56.664Z,6.20
2017-06-11T04:10:24.214Z,12.80
2017-06-11T04:12:51.750Z,6.37
2017-06-11T04:15:19.313Z,6.70
2017-06-11T04:17:46.921Z,6.33
2017-06-11T04:20:14.452Z,6.23
2017-06-11T04:22:42.013Z,5.43
2017-06-11T04:25:09.545Z,6.33
2017-06-11T04:27:37.094Z,9.00
2017-06-11T04:30:07.036Z,5.70
2017-06-11T04:32:34.570Z,5.13
2017-06-11T04:35:02.109Z,4.80
2017-06-11T04:37:29.669Z,5.73
2017-06-11T04:39:57.210Z,4.23
2017-06-11T04:42:24.777Z,5.77
2017-06-11T04:44:52.348Z,5.70
2017-06-11T04:47:19.894Z,4.30
2017-06-11T04:49:47.430Z,6.83
2017-06-11T04:52:15.010Z,5.17
2017-06-11T04:54:42.562Z,10.13
2017-06-11T04:57:10.106Z,5.13
2017-06-11T04:59:37.686Z,5.40
2017-06-11T05:02:05.287Z,5.23
2017-06-11T05:04:32.828Z,7.70
2017-06-11T05:07:00.370Z,4.40
2017-06-11T05:09:27.957Z,4.37
2017-06-11T05:11:55.494Z,4.20
2017-06-11T05:14:23.202Z,4.50
2017-06-11T05:16:50.774Z,4.57
2017-06-11T05:19:18.317Z,5.03
2017-06-11T05:21:45.873Z,4.70
2017-06-11T05:24:13.446Z,5.00
2017-06-11T05:26:40.986Z,5.00
2017-06-11T05:29:08.520Z,4.40
2017-06-11T05:31:36.134Z,3.70
2017-06-11T05:34:03.698Z,4.07
2017-06-11T05:36:31.238Z,4.73
2017-06-11T05:38:58.815Z,4.60
2017-06-11T05:41:26.347Z,4.53
2017-06-11T05:43:53.885Z,4.07
2017-06-11T05:46:21.479Z,4.33
2017-06-11T05:48:49.019Z,4.10
2017-06-11T05:51:16.603Z,3.87
2017-06-11T05:53:44.174Z,4.60
2017-06-11T05:56:11.709Z,7.30
2017-06-11T05:58:39.267Z,9.50
2017-06-11T06:01:06.838Z,6.00
2017-06-11T06:03:34.421Z,5.60
2017-06-11T06:06:01.962Z,6.10
2017-06-11T06:08:29.538Z,6.90
2017-06-11T06:10:57.083Z,6.70
2017-06-11T06:13:24.611Z,7.63
2017-06-11T06:15:52.189Z,7.50
2017-06-11T06:18:19.723Z,6.77
2017-06-11T06:20:47.250Z,7.50
2017-06-11T06:23:14.809Z,8.50
2017-06-11T06:25:42.332Z,8.13
2017-06-11T06:28:09.872Z,7.20
2017-06-11T06:30:37.454Z,6.67
2017-06-11T06:33:04.993Z,6.63
2017-06-11T06:35:32.528Z,7.30
2017-06-11T06:38:00.103Z,6.43
2017-06-11T06:40:27.636Z,9.90
2017-06-11T06:42:55.169Z,7.60
2017-06-11T06:45:22.760Z,6.50
2017-06-11T06:47:50.515Z,9.70
2017-06-11T06:50:18.127Z,6.83
2017-06-11T06:52:45.789Z,6.90
2017-06-11T06:55:13.573Z,6.73
2017-06-11T06:57:41.106Z,6.30
2017-06-11T07:00:08.790Z,9.60
2017-06-11T07:02:36.328Z,5.90
2017-06-11T07:05:03.914Z,5.73
2017-06-11T07:07:31.550Z,4.67
2017-06-11T07:09:59.082Z,4.67
2017-06-11T07:12:27.285Z,5.40
2017-06-11T07:14:54.890Z,4.50
2017-06-11T07:17:22.429Z,6.43
2017-06-11T07:19:49.966Z,7.23
2017-06-11T07:22:17.552Z,7.50
2017-06-11T07:24:45.083Z,6.03
2017-06-11T07:27:12.619Z,5.90
2017-06-11T07:29:40.686Z,4.70
2017-06-11T07:32:08.274Z,5.73
2017-06-11T07:34:36.185Z,4.50
2017-06-11T07:37:03.726Z,8.40
2017-06-11T07:39:31.304Z,6.87
2017-06-11T07:41:59.450Z,5.60
2017-06-11T07:44:26.982Z,5.73
2017-06-11T07:46:54.914Z,6.00
2017-06-11T07:49:22.450Z,7.80
2017-06-11T07:51:49.985Z,8.13
2017-06-11T07:54:17.961Z,8.40
2017-06-11T07:56:45.884Z,10.23
2017-06-11T07:59:13.784Z,8.37
2017-06-11T08:01:41.344Z,8.53
2017-06-11T08:04:09.338Z,8.20
2017-06-11T08:06:36.879Z,9.43
2017-06-11T08:09:04.490Z,10.90
2017-06-11T08:11:32.026Z,9.50
2017-06-11T08:13:59.589Z,11.27
2017-06-11T08:16:27.169Z,11.03
2017-06-11T08:18:54.711Z,11.63
2017-06-11T08:21:22.555Z,10.63
2017-06-11T08:23:50.257Z,9.97
2017-06-11T08:26:17.834Z,10.50
2017-06-11T08:28:45.378Z,11.57
2017-06-11T08:31:12.975Z,10.43
2017-06-11T08:33:40.532Z,11.53
2017-06-11T08:36:09.379Z,12.10
2017-06-11T08:38:38.144Z,12.77
2017-06-11T08:41:05.727Z,12.03
2017-06-11T08:43:33.273Z,11.77
2017-06-11T08:46:01.321Z,13.17
2017-06-11T08:48:28.899Z,12.23
2017-06-11T08:50:56.446Z,12.10
2017-06-11T08:53:24.110Z,13.27
2017-06-11T08:55:53.647Z,13.33
2017-06-11T08:58:21.758Z,13.37
2017-06-11T09:00:49.358Z,13.10
2017-06-11T09:03:17.392Z,14.67
2017-06-11T09:05:46.010Z,14.90
2017-06-11T09:08:13.613Z,13.97
2017-06-11T09:10:41.294Z,12.50
2017-06-11T09:13:08.925Z,12.33
2017-06-11T09:15:36.844Z,13.77
2017-06-11T09:18:04.794Z,13.47
2017-06-11T09:20:32.345Z,13.83
2017-06-11T09:22:59.943Z,15.33
2017-06-11T09:25:27.686Z,13.80
2017-06-11T09:27:55.585Z,15.00
2017-06-11T09:30:23.162Z,14.23
2017-06-11T09:32:50.717Z,15.10
2017-06-11T09:35:18.260Z,15.13
2017-06-11T09:37:46.428Z,15.70
2017-06-11T09:40:13.970Z,15.47
2017-06-11T09:42:41.551Z,14.43
2017-06-11T09:45:09.137Z,17.63
2017-06-11T09:47:36.945Z,14.03
2017-06-11T09:50:04.491Z,13.50
2017-06-11T09:52:32.065Z,16.83
2017-06-11T09:54:59.610Z,15.23
2017-06-11T09:57:27.159Z,14.47
2017-06-11T09:59:54.745Z,15.90
2017-06-11T10:02:22.329Z,13.07
2017-06-11T10:04:49.879Z,13.50
2017-06-11T10:07:17.415Z,13.63
2017-06-11T10:09:44.990Z,14.40
2017-06-11T10:12:12.539Z,14.53
2017-06-11T10:14:40.101Z,14.97
2017-06-11T10:17:07.687Z,13.20
2017-06-11T10:19:35.320Z,12.93
2017-06-11T10:22:02.928Z,13.60
2017-06-11T10:24:30.530Z,13.60
2017-06-11T10:26:58.090Z,11.87
2017-06-11T10:29:25.633Z,12.43
2017-06-11T10:31:53.205Z,12.37
2017-06-11T10:34:20.767Z,11.90
2017-06-11T10:36:48.309Z,9.03
2017-06-11T10:39:15.882Z,9.13
2017-06-11T10:41:43.415Z,9.50
2017-06-11T10:44:10.981Z,10.90
2017-06-11T10:46:38.573Z,10.07
2017-06-11T10:49:06.112Z,11.27
2017-06-11T10:51:33.651Z,9.67
2017-06-11T10:54:01.245Z,12.30
2017-06-11T10:56:28.808Z,11.93
2017-06-11T10:58:56.345Z,13.20
2017-06-11T11:01:23.930Z,11.13
2017-06-11T11:03:51.466Z,8.80
2017-06-11T11:06:19.002Z,10.73
2017-06-11T11:08:46.625Z,8.50
2017-06-11T11:11:14.185Z,10.83
2017-06-11T11:13:41.734Z,7.93
2017-06-11T11:16:09.294Z,8.77
2017-06-11T11:18:37.293Z,9.80
2017-06-11T11:21:04.874Z,7.20
2017-06-11T11:23:32.450Z,8.30
2017-06-11T11:25:59.986Z,8.77
2017-06-11T11:28:27.538Z,8.50
2017-06-11T11:30:55.102Z,8.50
2017-06-11T11:33:22.657Z,8.83
2017-06-11T11:35:50.469Z,8.50
2017-06-11T11:38:18.043Z,8.87
2017-06-11T11:40:45.582Z,11.53
2017-06-11T11:43:13.346Z,7.57
2017-06-11T11:45:40.937Z,10.13
2017-06-11T11:48:08.477Z,8.20
2017-06-11T11:50:36.056Z,8.02
2017-06-11T11:53:03.631Z,8.00
2017-06-11T11:55:31.214Z,7.70
2017-06-11T11:57:58.758Z,7.77
2017-06-11T12:00:26.467Z,7.90
2017-06-11T12:02:54.061Z,8.17
2017-06-11T12:05:21.700Z,8.97
2017-06-11T12:07:49.325Z,8.57
2017-06-11T12:10:17.725Z,8.77
2017-06-11T12:12:46.010Z,8.20
2017-06-11T12:15:13.582Z,13.13
2017-06-11T12:17:41.122Z,8.93
2017-06-11T12:20:08.685Z,13.73
2017-06-11T12:22:36.288Z,7.97
2017-06-11T12:25:03.828Z,7.53
2017-06-11T12:27:31.373Z,11.00
2017-06-11T12:29:58.952Z,8.30
2017-06-11T12:32:26.927Z,8.80
2017-06-11T12:34:54.513Z,9.10
2017-06-11T12:37:22.056Z,9.67
2017-06-11T12:39:49.631Z,8.47
2017-06-11T12:42:17.170Z,9.97
2017-06-11T12:44:44.714Z,9.63
2017-06-11T12:47:12.302Z,8.70
2017-06-11T12:49:39.830Z,8.37
2017-06-11T12:52:07.380Z,8.47
2017-06-11T12:54:34.966Z,8.43
2017-06-11T12:57:02.489Z,8.70
2017-06-11T12:59:30.061Z,8.63
2017-06-11T13:01:57.634Z,8.80
2017-06-11T13:04:25.168Z,9.50
2017-06-11T13:06:52.698Z,9.90
2017-06-11T13:09:20.290Z,11.43
2017-06-11T13:11:48.424Z,9.20
2017-06-11T13:14:17.978Z,8.57
2017-06-11T13:16:45.894Z,7.57
2017-06-11T13:19:13.562Z,8.40
2017-06-11T13:21:41.117Z,8.80
2017-06-11T13:24:08.681Z,7.10
2017-06-11T13:26:36.246Z,14.60
2017-06-11T13:29:03.785Z,9.33
2017-06-11T13:31:31.353Z,7.27
2017-06-11T13:33:58.889Z,7.13
2017-06-11T13:36:26.417Z,6.60
2017-06-11T13:38:54.009Z,11.03
2017-06-11T13:41:21.543Z,6.57
2017-06-11T13:43:49.075Z,7.17
2017-06-11T13:46:16.670Z,7.10
2017-06-11T13:48:44.288Z,7.53
2017-06-11T13:51:11.814Z,7.53
2017-06-11T13:53:39.394Z,8.53
2017-06-11T13:56:06.931Z,7.47
2017-06-11T13:58:34.474Z,7.03
2017-06-11T14:01:02.046Z,7.53
2017-06-11T14:03:29.635Z,8.27
2017-06-11T14:05:57.199Z,7.33
2017-06-11T14:08:24.801Z,9.07
2017-06-11T14:10:54.078Z,10.17
2017-06-11T14:13:21.901Z,10.13
2017-06-11T14:15:49.483Z,11.77
2017-06-11T14:18:17.245Z,7.83
2017-06-11T14:20:44.777Z,7.07
2017-06-11T14:23:12.373Z,8.47
2017-06-11T14:25:39.933Z,7.80
2017-06-11T14:28:08.269Z,7.27
2017-06-11T14:30:35.837Z,6.50
2017-06-11T14:33:03.382Z,7.23
2017-06-11T14:35:30.923Z,6.80
2017-06-11T14:37:58.497Z,7.93
2017-06-11T14:40:26.134Z,8.77
2017-06-11T14:42:53.687Z,6.83
2017-06-11T14:45:21.266Z,7.63
2017-06-11T14:47:49.104Z,6.57
2017-06-11T14:50:16.646Z,8.80
2017-06-11T14:52:44.301Z,6.40
2017-06-11T14:55:11.830Z,7.57
2017-06-11T14:57:39.369Z,7.13
2017-06-11T15:00:07.603Z,6.60
2017-06-11T15:02:36.146Z,8.17
2017-06-11T15:05:03.689Z,8.33
2017-06-11T15:07:31.283Z,10.23
2017-06-11T15:09:59.219Z,8.10
2017-06-11T15:12:37.272Z,8.50
2017-06-11T15:15:08.561Z,7.80
2017-06-11T15:28:47.314Z,7.80
2017-06-11T15:31:15.153Z,13.13
2017-06-11T15:33:42.685Z,8.27
2017-06-11T15:36:35.180Z,8.23
2017-06-11T15:41:56.311Z,7.57
2017-06-11T15:44:23.869Z,8.07
2017-06-11T15:46:51.413Z,7.40
2017-06-11T15:49:18.985Z,7.60
2017-06-11T15:51:46.532Z,7.67
2017-06-11T15:54:14.061Z,9.47
2017-06-11T15:56:45.821Z,7.27
2017-06-11T15:59:19.473Z,7.20
2017-06-11T16:02:01.559Z,7.80
2017-06-11T16:04:36.929Z,6.70
2017-06-11T16:07:20.205Z,15.40
2017-06-11T16:09:48.574Z,6.67
2017-06-11T16:12:27.959Z,6.77
2017-06-11T16:15:14.165Z,6.47
2017-06-11T16:17:48.958Z,6.83
2017-06-11T16:20:25.586Z,8.93
2017-06-11T16:22:55.897Z,7.00
2017-06-11T16:25:33.891Z,7.33
2017-06-11T16:28:05.147Z,7.40
2017-06-11T16:30:32.894Z,6.90
2017-06-11T16:33:00.437Z,7.10
2017-06-11T16:35:28.550Z,10.60
2017-06-11T16:38:03.427Z,7.63
2017-06-11T16:40:31.091Z,8.73
2017-06-11T16:43:00.009Z,8.17
2017-06-11T16:45:39.868Z,7.37
2017-06-11T16:50:54.838Z,6.53
2017-06-11T16:53:26.138Z,9.50
2017-06-11T16:58:37.309Z,7.47
2017-06-11T17:01:06.861Z,6.93
2017-06-11T17:03:38.982Z,7.10
2017-06-11T17:06:07.404Z,7.50
2017-06-11T17:08:41.563Z,7.07
2017-06-11T17:11:19.761Z,6.63
2017-06-11T17:13:48.682Z,8.90
2017-06-11T17:16:20.716Z,6.33
2017-06-11T17:18:49.489Z,6.70
2017-06-11T17:21:18.066Z,10.30
2017-06-11T17:23:46.553Z,10.23
2017-06-11T17:26:14.171Z,6.27
2017-06-11T17:28:42.221Z,6.80
2017-06-11T17:31:12.530Z,8.20
2017-06-11T17:33:45.902Z,11.47
2017-06-11T17:36:13.677Z,9.20
2017-06-11T17:38:41.310Z,12.97
2017-06-11T17:44:01.642Z,9.70
2017-06-11T17:46:33.127Z,8.53
2017-06-11T17:51:46.937Z,8.13
2017-06-11T17:54:14.740Z,10.97
2017-06-11T17:56:42.432Z,9.90
2017-06-11T17:59:10.804Z,10.27
2017-06-11T18:01:38.415Z,9.87
2017-06-11T18:04:05.990Z,10.43
2017-06-11T18:06:33.601Z,11.40
2017-06-11T18:09:01.766Z,8.97
2017-06-11T18:11:29.340Z,9.03
2017-06-11T18:13:56.913Z,11.07
2017-06-11T18:16:29.372Z,9.07
2017-06-11T18:18:58.286Z,10.87
2017-06-11T18:21:26.205Z,9.67
2017-06-11T18:23:54.723Z,8.80
2017-06-11T18:26:22.364Z,8.93
2017-06-11T18:28:49.914Z,19.30
2017-06-11T18:31:22.331Z,9.77
2017-06-11T18:33:52.431Z,9.30
2017-06-11T18:36:21.770Z,9.10
2017-06-11T18:38:52.344Z,8.17
2017-06-11T18:41:27.158Z,9.60
2017-06-11T18:43:58.217Z,10.90
2017-06-11T18:46:29.056Z,10.20
2017-06-11T18:51:57.276Z,9.70
2017-06-11T18:54:29.030Z,10.60
2017-06-11T19:02:20.010Z,9.63
2017-06-11T19:04:48.206Z,9.03
2017-06-11T19:07:16.085Z,8.97
2017-06-11T19:09:43.736Z,9.60
2017-06-11T19:12:12.199Z,11.03
2017-06-11T19:14:39.787Z,7.67
2017-06-11T19:17:07.666Z,7.17
2017-06-11T19:19:35.255Z,7.70
2017-06-11T19:22:09.709Z,8.90
2017-06-11T19:24:41.560Z,11.97
2017-06-11T19:27:09.115Z,10.53
2017-06-11T19:37:57.388Z,9.83
2017-06-11T19:40:33.798Z,10.27
2017-06-11T19:43:23.956Z,8.13
2017-06-11T19:46:00.425Z,6.80
2017-06-11T19:48:35.210Z,10.70
2017-06-11T19:53:45.921Z,10.13
2017-06-11T19:56:18.283Z,9.43
2017-06-11T19:58:57.522Z,9.33
2017-06-11T20:01:36.667Z,15.53
2017-06-11T20:04:14.358Z,16.13
2017-06-11T20:09:59.035Z,11.77
2017-06-11T20:12:26.661Z,31.43
2017-06-11T20:14:54.218Z,13.20
2017-06-11T20:17:21.992Z,11.23
2017-06-11T20:19:49.574Z,7.83
2017-06-11T20:22:17.342Z,10.03
2017-06-11T20:24:44.918Z,5.70
2017-06-11T20:27:16.554Z,5.90
2017-06-11T20:29:45.341Z,5.47
2017-06-11T20:32:13.874Z,5.50
2017-06-11T20:34:41.835Z,5.60
2017-06-11T20:37:09.402Z,7.73
2017-06-11T20:39:36.993Z,6.40
2017-06-11T20:42:04.553Z,6.53
2017-06-11T20:44:33.769Z,5.00
2017-06-11T20:47:04.698Z,5.90
2017-06-11T20:49:38.149Z,5.30
2017-06-11T20:52:24.321Z,6.53
2017-06-11T20:54:59.748Z,5.57
2017-06-11T20:57:27.345Z,5.13
2017-06-11T20:59:54.893Z,6.17
2017-06-11T21:02:39.478Z,4.63
2017-06-11T21:05:08.762Z,5.30
2017-06-11T21:07:59.421Z,6.30
2017-06-11T21:10:40.256Z,12.10
2017-06-11T21:13:08.047Z,17.67
2017-06-11T21:15:36.893Z,10.90
2017-06-11T21:18:19.663Z,10.73
2017-06-11T21:20:47.631Z,9.50
2017-06-11T21:23:15.167Z,9.20
2017-06-11T21:25:42.745Z,11.33
2017-06-11T21:28:12.003Z,15.10
2017-06-11T21:31:11.766Z,18.33
2017-06-11T21:33:39.315Z,12.63
2017-06-11T21:36:07.129Z,20.40
2017-06-11T21:38:34.934Z,13.70
2017-06-11T21:41:02.492Z,11.40
2017-06-11T21:43:30.149Z,12.00
2017-06-11T21:45:57.730Z,9.50
2017-06-11T21:48:25.407Z,16.17
2017-06-11T21:50:52.981Z,11.10
2017-06-11T21:53:21.309Z,11.90
2017-06-11T21:55:48.903Z,9.00
2017-06-11T21:58:17.345Z,9.63
2017-06-11T22:00:44.952Z,8.53
2017-06-11T22:03:12.822Z,8.13
2017-06-11T22:05:40.589Z,9.00
2017-06-11T22:08:08.345Z,7.07
2017-06-11T22:10:36.005Z,9.33
2017-06-11T22:13:04.253Z,8.03
2017-06-11T22:15:32.025Z,7.13
2017-06-11T22:18:00.045Z,9.63
2017-06-11T22:20:27.618Z,6.47
2017-06-11T22:22:55.255Z,6.90
2017-06-11T22:25:22.834Z,7.27
2017-06-11T22:27:50.458Z,6.60
2017-06-11T22:30:19.006Z,8.40
2017-06-11T22:32:46.581Z,6.40
2017-06-11T22:35:14.142Z,7.73
2017-06-11T22:37:41.845Z,6.60
2017-06-11T22:40:09.456Z,7.73
2017-06-11T22:42:37.136Z,7.37
2017-06-11T22:45:04.772Z,12.50
2017-06-11T22:47:32.321Z,8.27
2017-06-11T22:49:59.871Z,7.50
2017-06-11T22:52:27.454Z,7.33
2017-06-11T22:54:54.988Z,9.10
2017-06-11T22:57:22.531Z,7.13
2017-06-11T22:59:50.115Z,9.97
2017-06-11T23:02:17.780Z,8.17
2017-06-11T23:04:45.347Z,10.37
2017-06-11T23:07:12.885Z,9.07
2017-06-11T23:09:40.465Z,9.00
2017-06-11T23:12:08.068Z,8.93
2017-06-11T23:14:35.627Z,7.30
2017-06-11T23:17:03.206Z,7.03
2017-06-11T23:19:30.741Z,6.70
2017-06-11T23:21:58.282Z,9.00
2017-06-11T23:24:25.891Z,7.13
2017-06-11T23:26:53.443Z,9.00
2017-06-11T23:29:21.082Z,8.00
2017-06-11T23:31:48.728Z,6.30
2017-06-11T23:34:16.291Z,7.47
2017-06-11T23:36:43.933Z,7.50
2017-06-11T23:39:11.622Z,15.60
2017-06-11T23:41:39.186Z,7.77
2017-06-11T23:44:06.753Z,7.07
2017-06-11T23:46:34.454Z,8.10
2017-06-11T23:49:02.152Z,12.33
2017-06-11T23:51:29.815Z,8.43
2017-06-11T23:53:57.440Z,6.47
2017-06-11T23:56:25.261Z,9.80
2017-06-11T23:58:52.841Z,9.90
